Valley Home, California
Current Conditions -  °F | °C
As of 6:53 AM on Wednesday 22 Oct 2014 (Local Time) from KMOD Reporting Station
Clear Clear  
Wind Chill: 54°   Ceiling: Unl
Heat Index: 54°   Visibility: 10mi
Dew Point: 49°   Wind: 7mph
Humidity: 83%   Direction: 330°NNW
Pressure: 30.02"   Gusts: NA
Location:  37.7848°N, 120.772°W
Report Text: KMOD 221353Z 33006KT 10SM CLR 12/09 A3002 RMK AO2 SLP167 T01220094
Loading
Personal Weather Stations






























Interactive Weather Map
Tropical Storm Tracking
New forecast layout! Learn more

10-Day Weather Forecast

Advertisements
Track Severe Weather on mobile